Search for airport 
image banner adimage banner adimage banner ad
image banner ad

CA343 - Bouctouche (Ccu4)

Located in , Canada

ICAO - , IATA -

Data provided by Airmate  

General information

Coordinates: N46°30'33" W64°41'34"
Elevation is feet MSL.
 
View others Airports in New Brunswick

Operational data

Special qualification required
Current time UTC:
Current local time:
METAR: CYQM 062300Z 16019G28KT 15SM -RA OVC005 09/09 A2967 RMK SF8 SLP051
TAF: TAF AMD CYQM 061925Z 0619/0718 15015G25KT 3SM -RA BR BKN008 OVC012 TEMPO 0619/0701 6SM -RA BR OVC012 BECMG 0623/0701 18015G30KT FM070100 18015G30KT P6SM -SHRA OVC020 TEMPO 0701/0710 5SM -SHRA BECMG 0708/0710 26015G30KT FM071000 26015G30KT P6SM -SHRA BKN025 FM071200 26015G25KT P6SM SCT040 BECMG 0715/0717 27020G30KT RMK NXT FCST BY 070000Z
View NOTAMs / SUP AIP / TFR affecting this airport [VIEW]
Communications frequencies: [VIEW]

Runways:

Airport contact information

Address: Canada

Satellite view of CA343